Time;durP1;ratioP1;P1;durP2;ratioP2;P2;SDS_P1;SDS_P2;PMS_P1;PMS_P2;Temp;Humidity;BMP_temperature;BMP_pressure;BME280_temperature;BME280_humidity;BME280_pressure;Samples;Min_cycle;Max_cycle;Signal;HPM_P1;HPM_P2
2024/01/30 00:01:05;;;;;;;21.80;9.38;;;8.90;99.90;;;;;;6208156;23;20012;-72
2024/01/30 00:03:31;;;;;;;22.17;9.07;;;9.00;99.90;;;;;;6208009;23;20013;-68
2024/01/30 00:05:56;;;;;;;25.20;9.90;;;8.80;99.90;;;;;;6208438;23;20012;-71
2024/01/30 00:08:22;;;;;;;14.53;8.57;;;8.80;99.90;;;;;;6207738;23;20013;-68
2024/01/30 00:10:47;;;;;;;18.53;9.13;;;8.80;99.90;;;;;;6207916;23;20005;-72
2024/01/30 00:13:14;;;;;;;16.30;8.97;;;8.80;99.90;;;;;;6257259;22;20008;-74
2024/01/30 00:15:40;;;;;;;24.33;9.50;;;8.70;99.90;;;;;;6207717;23;20004;-68
2024/01/30 00:18:05;;;;;;;21.73;9.83;;;8.60;99.90;;;;;;6207612;23;20007;-68
2024/01/30 00:20:31;;;;;;;24.50;10.60;;;8.60;99.90;;;;;;6207472;23;20016;-65
2024/01/30 00:22:56;;;;;;;20.77;10.50;;;8.80;99.90;;;;;;6207489;23;20020;-66
2024/01/30 00:25:22;;;;;;;21.70;10.63;;;8.70;99.90;;;;;;6207436;23;20005;-71
2024/01/30 00:27:47;;;;;;;26.63;10.97;;;8.70;99.90;;;;;;6208079;23;20449;-69
2024/01/30 00:30:13;;;;;;;25.63;11.37;;;8.70;99.90;;;;;;6207708;23;20020;-67
2024/01/30 00:32:39;;;;;;;22.45;11.02;;;8.70;99.90;;;;;;6207952;23;20015;-67
2024/01/30 00:35:05;;;;;;;18.73;9.87;;;8.70;99.90;;;;;;6208790;23;20083;-71
2024/01/30 00:37:31;;;;;;;22.63;10.95;;;8.60;99.90;;;;;;6205934;23;20158;-70
2024/01/30 00:39:57;;;;;;;23.02;10.38;;;8.50;99.90;;;;;;6208116;23;20036;-68
2024/01/30 00:42:23;;;;;;;19.27;11.07;;;8.60;99.90;;;;;;6208147;23;20004;-66
2024/01/30 00:44:49;;;;;;;;;;;8.70;99.90;;;;;;6207920;23;20076;-68
2024/01/30 00:47:15;;;;;;;17.52;10.32;;;8.70;99.90;;;;;;6206945;23;20292;-66
2024/01/30 00:49:40;;;;;;;23.17;11.10;;;8.50;99.90;;;;;;6207120;23;20779;-65
2024/01/30 00:52:06;;;;;;;23.93;11.47;;;8.50;99.90;;;;;;6206651;23;20001;-66
2024/01/30 00:54:32;;;;;;;23.90;11.03;;;8.70;99.90;;;;;;6207157;23;20009;-70
2024/01/30 00:56:57;;;;;;;22.80;11.47;;;8.60;99.90;;;;;;6207631;23;20000;-66
2024/01/30 00:59:23;;;;;;;24.57;11.23;;;8.60;99.90;;;;;;6206961;23;20015;-64
2024/01/30 01:01:48;;;;;;;20.07;10.20;;;8.70;99.90;;;;;;6207676;23;20071;-67
2024/01/30 01:04:14;;;;;;;25.10;11.07;;;8.50;99.90;;;;;;6207330;23;20455;-68
2024/01/30 01:06:42;;;;;;;21.47;10.93;;;8.60;99.90;;;;;;6207848;23;20461;-66
2024/01/30 01:09:08;;;;;;;22.15;11.95;;;8.40;99.90;;;;;;6207813;23;20040;-67
2024/01/30 01:11:33;;;;;;;31.57;11.90;;;8.40;99.90;;;;;;6207225;23;20173;-71
2024/01/30 01:13:59;;;;;;;31.67;12.07;;;8.60;99.90;;;;;;6208088;23;20004;-64
2024/01/30 01:16:24;;;;;;;22.83;11.83;;;8.60;99.90;;;;;;6207213;23;20009;-64
2024/01/30 01:18:50;;;;;;;24.37;11.20;;;8.60;99.90;;;;;;6207146;23;20035;-64
2024/01/30 01:21:16;;;;;;;37.03;13.43;;;8.50;99.90;;;;;;6207210;23;19996;-65
2024/01/30 01:23:41;;;;;;;22.95;12.10;;;8.50;99.90;;;;;;6207642;23;20476;-65
2024/01/30 01:26:09;;;;;;;25.23;12.17;;;8.50;99.90;;;;;;6208064;23;20091;-64
2024/01/30 01:28:35;;;;;;;24.85;13.02;;;8.60;99.90;;;;;;6207996;23;20023;-67
2024/01/30 01:31:05;;;;;;;27.83;13.00;;;8.70;99.90;;;;;;6207289;23;20672;-70
2024/01/30 01:33:34;;;;;;;21.15;11.48;;;8.60;99.90;;;;;;6207718;23;20296;-70
2024/01/30 01:36:02;;;;;;;24.73;12.32;;;8.60;99.90;;;;;;6207377;23;20011;-67
2024/01/30 01:38:28;;;;;;;23.27;12.30;;;8.50;99.90;;;;;;6207262;23;20011;-67
2024/01/30 01:40:53;;;;;;;22.35;13.57;;;8.60;99.90;;;;;;6207562;23;20005;-67
2024/01/30 01:43:19;;;;;;;21.43;12.77;;;8.80;99.90;;;;;;6207157;23;20012;-64
2024/01/30 01:45:45;;;;;;;24.03;13.23;;;8.80;99.90;;;;;;6207144;23;20008;-68
2024/01/30 01:48:12;;;;;;;24.75;13.93;;;8.90;99.90;;;;;;6207029;23;20517;-69
2024/01/30 01:50:38;;;;;;;24.83;12.07;;;8.90;99.90;;;;;;6207595;23;20055;-73
2024/01/30 01:53:07;;;;;;;28.55;12.23;;;8.70;99.90;;;;;;6207979;23;20055;-69
2024/01/30 01:55:34;;;;;;;25.90;12.35;;;8.80;99.90;;;;;;6207448;23;20000;-69
2024/01/30 01:58:00;;;;;;;19.83;11.40;;;8.70;99.90;;;;;;6207152;23;20005;-70
2024/01/30 02:00:26;;;;;;;26.02;13.35;;;8.90;99.90;;;;;;6207149;23;20438;-71
2024/01/30 02:02:54;;;;;;;26.30;12.13;;;8.80;99.90;;;;;;6207279;23;20004;-70
2024/01/30 02:05:20;;;;;;;21.73;12.63;;;8.70;99.90;;;;;;6206426;23;20048;-73
2024/01/30 02:07:46;;;;;;;23.30;11.27;;;8.60;99.90;;;;;;6205840;23;20346;-71
2024/01/30 02:10:12;;;;;;;23.53;12.07;;;8.60;99.90;;;;;;6207163;23;20015;-70
2024/01/30 02:12:38;;;;;;;20.42;11.98;;;8.80;99.90;;;;;;6207596;23;20008;-69
2024/01/30 02:15:05;;;;;;;21.55;12.00;;;8.80;99.90;;;;;;6207323;23;20008;-70
2024/01/30 02:17:30;;;;;;;24.63;12.20;;;8.80;99.90;;;;;;6207004;23;20298;-72
2024/01/30 02:19:56;;;;;;;23.33;12.18;;;8.80;99.90;;;;;;6206893;23;20008;-71
2024/01/30 02:22:23;;;;;;;23.00;12.40;;;8.80;99.90;;;;;;6207290;23;20009;-71
2024/01/30 02:24:49;;;;;;;20.80;11.90;;;8.90;99.90;;;;;;6206933;23;20004;-73
2024/01/30 02:27:14;;;;;;;22.60;11.20;;;8.80;99.90;;;;;;6206672;23;19997;-69
2024/01/30 02:29:40;;;;;;;28.50;14.80;;;8.90;99.90;;;;;;6206847;23;20021;-73
2024/01/30 02:32:06;;;;;;;20.33;11.83;;;8.80;99.90;;;;;;6206870;23;20028;-69
2024/01/30 02:34:32;;;;;;;28.48;12.18;;;8.80;99.90;;;;;;6206908;23;20135;-69
2024/01/30 02:36:57;;;;;;;34.27;15.13;;;8.80;99.90;;;;;;6206878;23;20099;-70
2024/01/30 02:39:23;;;;;;;19.73;11.67;;;8.90;99.90;;;;;;6208758;23;20012;-71
2024/01/30 02:41:49;;;;;;;23.27;12.15;;;8.90;99.90;;;;;;6208784;23;20026;-72
2024/01/30 02:44:15;;;;;;;22.07;11.37;;;8.80;99.90;;;;;;6209060;23;20051;-70
2024/01/30 02:46:41;;;;;;;20.52;11.98;;;8.80;99.90;;;;;;6208849;23;20396;-71
2024/01/30 02:49:06;;;;;;;20.70;11.33;;;8.90;99.90;;;;;;6208135;23;20016;-67
2024/01/30 02:51:32;;;;;;;27.77;12.13;;;8.90;99.90;;;;;;6208673;23;20377;-67
2024/01/30 02:53:57;;;;;;;20.80;10.90;;;8.90;99.90;;;;;;6208308;23;20015;-66
2024/01/30 02:56:23;;;;;;;20.17;11.30;;;8.80;99.90;;;;;;6206638;23;20346;-65
2024/01/30 02:58:49;;;;;;;22.50;11.90;;;9.00;99.90;;;;;;6209556;23;20012;-64
2024/01/30 03:01:14;;;;;;;21.33;11.87;;;9.00;99.90;;;;;;6208792;23;20008;-68
2024/01/30 03:03:40;;;;;;;19.43;12.33;;;9.00;99.90;;;;;;6208613;23;20004;-67
2024/01/30 03:06:07;;;;;;;20.40;11.52;;;9.00;99.90;;;;;;6208166;23;20671;-64
2024/01/30 03:08:34;;;;;;;20.02;11.20;;;9.10;99.90;;;;;;6208455;23;20013;-64
2024/01/30 03:11:00;;;;;;;22.63;11.82;;;9.00;99.90;;;;;;6208821;23;20001;-68
2024/01/30 03:13:26;;;;;;;21.10;11.55;;;8.90;99.90;;;;;;6208117;23;20327;-66
2024/01/30 03:15:51;;;;;;;28.47;11.83;;;8.90;99.90;;;;;;6208183;23;20004;-64
2024/01/30 03:18:17;;;;;;;18.40;10.80;;;8.90;99.90;;;;;;6207303;23;20013;-65
2024/01/30 03:20:43;;;;;;;21.20;10.82;;;9.00;99.90;;;;;;6209069;23;20475;-63
2024/01/30 03:23:09;;;;;;;25.37;11.23;;;9.00;99.90;;;;;;6208840;23;20461;-67
2024/01/30 03:25:34;;;;;;;21.63;11.07;;;8.90;99.90;;;;;;6206011;23;20368;-72
2024/01/30 03:28:00;;;;;;;21.20;11.33;;;8.90;99.90;;;;;;6208896;23;20070;-72
2024/01/30 03:30:26;;;;;;;19.13;10.95;;;9.00;99.90;;;;;;6207960;23;20048;-71
2024/01/30 03:32:51;;;;;;;22.57;12.13;;;9.10;99.90;;;;;;6207590;23;20012;-73
2024/01/30 03:35:18;;;;;;;18.67;10.93;;;9.10;99.90;;;;;;6209052;23;20004;-67
2024/01/30 03:37:44;;;;;;;21.48;11.27;;;8.80;99.90;;;;;;6208794;23;20009;-67
2024/01/30 03:40:10;;;;;;;17.60;11.20;;;8.80;99.90;;;;;;6209878;23;20082;-71
2024/01/30 03:42:35;;;;;;;20.38;11.55;;;8.80;99.90;;;;;;6208899;23;20338;-67
2024/01/30 03:45:02;;;;;;;22.03;11.17;;;8.80;99.90;;;;;;6209004;23;20004;-69
2024/01/30 03:47:27;;;;;;;;;;;8.80;99.90;;;;;;6208204;23;20932;-71
2024/01/30 03:49:53;;;;;;;20.98;10.68;;;8.80;99.90;;;;;;6207841;23;19915;-73
2024/01/30 03:52:19;;;;;;;21.33;10.33;;;8.80;99.90;;;;;;6208135;23;20062;-68
2024/01/30 03:54:44;;;;;;;21.57;11.07;;;8.80;99.90;;;;;;6208472;23;20004;-68
2024/01/30 03:57:10;;;;;;;21.10;10.20;;;8.80;99.90;;;;;;6208276;23;20009;-71
2024/01/30 03:59:35;;;;;;;26.60;11.73;;;8.90;99.90;;;;;;6208062;23;20011;-66
2024/01/30 04:02:01;;;;;;;20.40;10.63;;;8.90;99.90;;;;;;6208119;23;20496;-70
2024/01/30 04:04:27;;;;;;;23.63;10.27;;;8.90;99.90;;;;;;6208705;23;20079;-67
2024/01/30 04:06:52;;;;;;;31.23;11.37;;;8.80;99.90;;;;;;6207993;23;20000;-70
2024/01/30 04:09:18;;;;;;;21.33;11.77;;;8.80;99.90;;;;;;6207814;23;20012;-70
2024/01/30 04:11:44;;;;;;;25.52;11.13;;;8.90;99.90;;;;;;6208161;23;20004;-65
2024/01/30 04:14:10;;;;;;;16.20;10.27;;;8.80;99.90;;;;;;6257409;22;20011;-72
2024/01/30 04:16:36;;;;;;;19.83;11.35;;;8.90;99.90;;;;;;6208115;23;20011;-70
2024/01/30 04:19:01;;;;;;;25.13;11.77;;;8.70;99.90;;;;;;6207793;23;20096;-67
2024/01/30 04:21:27;;;;;;;22.67;11.10;;;8.70;99.90;;;;;;6206128;23;20463;-72
2024/01/30 04:23:53;;;;;;;24.57;10.03;;;8.70;99.90;;;;;;6205879;23;20115;-65
2024/01/30 04:26:19;;;;;;;28.92;12.40;;;8.80;99.90;;;;;;6207619;23;20066;-64
2024/01/30 04:28:45;;;;;;;21.13;10.77;;;8.70;99.90;;;;;;6208392;23;20016;-64
2024/01/30 04:31:11;;;;;;;20.17;10.63;;;8.70;99.90;;;;;;6208534;23;20425;-66
2024/01/30 04:33:37;;;;;;;27.15;10.63;;;8.60;99.90;;;;;;6207489;23;20709;-70
2024/01/30 04:36:03;;;;;;;29.65;11.07;;;8.60;99.90;;;;;;6206970;23;19997;-70
2024/01/30 04:38:29;;;;;;;21.80;10.90;;;8.60;99.90;;;;;;6207631;23;20324;-68
2024/01/30 04:40:55;;;;;;;20.70;11.10;;;8.50;99.90;;;;;;6207634;23;20043;-70
2024/01/30 04:43:21;;;;;;;16.97;9.87;;;8.50;99.90;;;;;;6207488;23;20232;-66
2024/01/30 04:45:47;;;;;;;25.50;10.48;;;8.60;99.90;;;;;;6256959;22;20112;-72
2024/01/30 04:48:12;;;;;;;17.60;9.93;;;8.50;99.90;;;;;;6208202;23;20027;-68
2024/01/30 04:50:38;;;;;;;20.27;10.87;;;8.50;99.90;;;;;;6208010;23;20054;-67
2024/01/30 04:53:03;;;;;;;16.73;9.63;;;8.40;99.90;;;;;;6207959;23;20079;-74
2024/01/30 04:55:29;;;;;;;25.93;9.90;;;8.50;99.90;;;;;;6207822;23;20007;-71
2024/01/30 04:57:54;;;;;;;18.97;10.67;;;8.50;99.90;;;;;;6207204;23;20001;-70
2024/01/30 05:00:20;;;;;;;19.83;10.10;;;8.40;99.90;;;;;;6205988;23;20008;-71
2024/01/30 05:02:46;;;;;;;28.23;10.47;;;8.30;99.90;;;;;;6207363;23;20075;-64
2024/01/30 05:05:11;;;;;;;19.77;10.00;;;8.30;99.90;;;;;;6208180;23;20035;-66
2024/01/30 05:07:38;;;;;;;31.00;9.77;;;8.30;99.90;;;;;;6206913;23;20438;-65
2024/01/30 05:10:04;;;;;;;23.67;10.73;;;8.20;99.90;;;;;;6207539;23;20035;-64
2024/01/30 05:12:30;;;;;;;25.23;10.17;;;8.20;99.90;;;;;;6207809;23;20005;-65
2024/01/30 05:14:55;;;;;;;22.87;10.23;;;8.30;99.90;;;;;;6207107;23;20235;-64
2024/01/30 05:17:21;;;;;;;22.60;10.50;;;8.30;99.90;;;;;;6207254;23;20013;-65
2024/01/30 05:19:46;;;;;;;24.07;11.03;;;8.30;99.90;;;;;;6206693;23;20687;-63
2024/01/30 05:22:15;;;;;;;31.03;11.33;;;8.20;99.90;;;;;;6207240;23;20004;-72
2024/01/30 05:24:42;;;;;;;21.27;10.98;;;8.20;99.90;;;;;;6206462;23;20090;-68
2024/01/30 05:27:08;;;;;;;21.05;10.90;;;8.20;99.90;;;;;;6206510;23;20464;-66
2024/01/30 05:29:33;;;;;;;20.25;10.93;;;8.10;99.90;;;;;;6207768;23;20032;-71
2024/01/30 05:31:59;;;;;;;19.07;10.07;;;8.20;99.90;;;;;;6207856;23;20005;-66
2024/01/30 05:34:25;;;;;;;23.70;10.50;;;8.10;99.90;;;;;;6207146;23;20475;-69
2024/01/30 05:36:50;;;;;;;21.30;10.87;;;8.10;99.90;;;;;;6207130;23;20084;-68
2024/01/30 05:39:16;;;;;;;21.43;11.00;;;8.00;99.90;;;;;;6207130;23;20007;-71
2024/01/30 05:41:41;;;;;;;20.93;10.53;;;8.00;99.90;;;;;;6207320;23;20102;-67
2024/01/30 05:44:07;;;;;;;19.80;9.93;;;8.00;99.90;;;;;;6208004;23;20066;-65
2024/01/30 05:46:33;;;;;;;21.37;11.37;;;8.10;99.90;;;;;;6207513;23;20081;-67
2024/01/30 05:48:59;;;;;;;18.42;10.90;;;8.10;99.90;;;;;;6207570;23;20047;-64
2024/01/30 05:51:25;;;;;;;22.90;11.27;;;7.90;99.90;;;;;;6207519;23;20072;-64
2024/01/30 05:53:50;;;;;;;21.80;10.83;;;8.00;99.90;;;;;;6207607;23;20082;-64
2024/01/30 05:56:16;;;;;;;20.57;10.87;;;8.00;99.90;;;;;;6205449;23;20332;-69
2024/01/30 05:58:43;;;;;;;23.30;11.60;;;8.10;99.90;;;;;;6207368;23;20075;-69
2024/01/30 06:01:09;;;;;;;22.40;10.82;;;8.00;99.90;;;;;;6209178;23;20004;-69
2024/01/30 06:03:35;;;;;;;19.83;10.80;;;;;;;;;;6209483;23;20664;-68
2024/01/30 06:06:01;;;;;;;19.63;12.13;;;;;;;;;;6207375;23;20115;-66
2024/01/30 06:08:27;;;;;;;27.90;13.85;;;;;;;;;;6206734;23;20036;-66
2024/01/30 06:10:53;;;;;;;23.52;12.45;;;;;;;;;;6206909;23;20001;-71
2024/01/30 06:13:19;;;;;;;29.60;12.95;;;;;;;;;;6207929;23;20008;-69
2024/01/30 06:15:45;;;;;;;24.30;12.60;;;;;;;;;;6209464;23;20071;-65
2024/01/30 06:18:11;;;;;;;27.83;13.55;;;;;;;;;;6209460;23;20001;-71
2024/01/30 06:20:37;;;;;;;27.77;14.05;;;;;;;;;;6209190;23;20036;-68
2024/01/30 06:23:03;;;;;;;31.38;13.18;;;;;;;;;;6209162;23;20366;-72
2024/01/30 06:25:29;;;;;;;28.73;14.23;;;;;;;;;;6209037;23;20004;-68
2024/01/30 06:27:55;;;;;;;22.80;13.18;;;;;;;;;;6208567;23;20008;-70
2024/01/30 06:30:21;;;;;;;24.55;12.65;;;;;;;;;;6208229;23;20016;-68
2024/01/30 06:32:47;;;;;;;25.85;14.25;;;;;;;;;;6209236;23;20015;-64
2024/01/30 06:35:13;;;;;;;28.10;13.98;;;;;;;;;;6209495;23;20050;-73
2024/01/30 06:37:39;;;;;;;32.30;14.90;;;;;;;;;;6209052;23;20004;-70
2024/01/30 06:40:05;;;;;;;31.83;14.63;;;;;;;;;;6209449;23;20127;-70
2024/01/30 06:42:31;;;;;;;31.85;15.32;;;;;;;;;;6208550;23;20012;-67
2024/01/30 06:44:57;;;;;;;25.30;13.93;;;;;;;;;;6209132;23;20019;-70
2024/01/30 06:47:23;;;;;;;35.10;15.40;;;;;;;;;;6208967;23;20005;-68
2024/01/30 06:49:49;;;;;;;34.85;15.27;;;;;;;;;;6208614;23;20015;-70
2024/01/30 06:52:15;;;;;;;34.97;15.30;;;;;;;;;;6209947;23;20084;-70
2024/01/30 06:54:41;;;;;;;30.08;14.98;;;;;;;;;;6208173;23;20008;-67
2024/01/30 06:57:11;;;;;;;36.40;16.33;;;;;;;;;;6209166;23;20268;-67
2024/01/30 06:59:43;;;;;;;29.48;15.10;;;;;;;;;;6209255;23;20027;-70
2024/01/30 07:02:09;;;;;;;27.50;15.52;;;;;;;;;;6207627;23;20336;-70
2024/01/30 07:04:37;;;;;;;30.25;16.70;;;;;;;;;;6209272;23;20007;-72
2024/01/30 07:07:04;;;;;;;33.13;16.73;;;;;;;;;;6207743;23;20055;-65
2024/01/30 07:09:30;;;;;;;32.03;17.33;;;;;;;;;;6209007;23;20013;-67
2024/01/30 07:11:58;;;;;;;32.65;17.10;;;;;;;;;;6208965;23;20032;-66
2024/01/30 07:14:24;;;;;;;28.80;17.10;;;;;;;;;;6209091;23;20005;-68
2024/01/30 07:16:50;;;;;;;43.55;18.75;;;;;;;;;;6208931;23;20000;-65
2024/01/30 07:19:16;;;;;;;40.20;17.90;;;;;;;;;;6209065;23;19996;-64
2024/01/30 07:21:42;;;;;;;30.98;17.45;;;;;;;;;;6208281;23;20449;-64
2024/01/30 07:24:08;;;;;;;38.33;17.75;;;;;;;;;;6207926;23;20004;-70
2024/01/30 07:26:35;;;;;;;38.97;18.35;;;;;;;;;;6208609;23;20437;-64
2024/01/30 07:29:01;;;;;;;36.50;18.92;;;;;;;;;;6208390;23;20012;-65
2024/01/30 07:31:28;;;;;;;37.50;19.33;;;;;;;;;;6205659;23;20099;-66
2024/01/30 07:33:54;;;;;;;32.15;18.65;;;;;;;;;;6208931;23;20009;-64
2024/01/30 07:36:20;;;;;;;;;;;;;;;;;;6209165;23;20417;-70
2024/01/30 07:38:46;;;;;;;37.95;18.70;;;;;;;;;;6208717;23;19900;-70
2024/01/30 07:41:12;;;;;;;38.58;18.48;;;;;;;;;;6208768;23;20004;-73
2024/01/30 07:43:39;;;;;;;35.88;18.60;;;;;;;;;;6208584;23;20535;-69
2024/01/30 07:46:06;;;;;;;44.20;18.55;;;;;;;;;;6208443;23;20012;-70
2024/01/30 07:48:34;;;;;;;38.05;18.90;;;7.80;99.90;;;;;;6208790;23;20059;-68
2024/01/30 07:51:00;;;;;;;38.55;17.73;;;7.70;99.90;;;;;;6208933;23;20440;-73
2024/01/30 07:53:25;;;;;;;37.03;19.25;;;7.80;99.90;;;;;;6208943;23;20464;-69
2024/01/30 07:55:52;;;;;;;35.47;18.60;;;7.80;99.90;;;;;;6208553;23;20005;-74
2024/01/30 07:58:18;;;;;;;41.78;19.30;;;7.80;99.90;;;;;;6209111;23;20054;-68
2024/01/30 08:00:44;;;;;;;;;;;7.90;99.90;;;;;;6209615;23;20453;-68
2024/01/30 08:03:10;;;;;;;44.85;19.58;;;7.90;99.90;;;;;;6207999;23;19907;-66
2024/01/30 08:05:36;;;;;;;42.73;19.23;;;;;;;;;;6207949;23;20009;-73
2024/01/30 08:08:02;;;;;;;37.65;18.92;;;8.00;99.90;;;;;;6208069;23;20441;-68
2024/01/30 08:10:27;;;;;;;35.50;17.17;;;9.40;99.90;;;;;;6209039;23;20008;-71
2024/01/30 08:12:53;;;;;;;35.60;16.97;;;10.10;99.90;;;;;;6208226;23;20008;-71
2024/01/30 08:15:18;;;;;;;33.93;17.30;;;9.40;99.90;;;;;;6207921;23;20008;-73
2024/01/30 08:17:45;;;;;;;29.33;15.93;;;9.00;99.90;;;;;;6208412;23;20016;-66
2024/01/30 08:20:11;;;;;;;28.65;16.05;;;8.90;99.90;;;;;;6207556;23;20075;-72
2024/01/30 08:22:39;;;;;;;27.23;15.65;;;9.20;99.90;;;;;;6208253;22;20012;-71
2024/01/30 08:25:06;;;;;;;28.08;14.60;;;9.30;99.90;;;;;;6232024;23;20004;-73
2024/01/30 08:27:31;;;;;;;29.50;15.35;;;9.90;99.90;;;;;;6207256;23;20000;-74
2024/01/30 08:29:57;;;;;;;27.83;16.37;;;10.30;99.90;;;;;;6207680;23;20092;-73
2024/01/30 08:32:23;;;;;;;25.93;15.67;;;9.90;99.90;;;;;;6208509;23;20086;-72
2024/01/30 08:34:49;;;;;;;30.77;14.45;;;9.50;99.90;;;;;;6207041;23;20005;-65
2024/01/30 08:37:16;;;;;;;28.75;15.15;;;9.60;99.90;;;;;;6207557;23;20004;-72
2024/01/30 08:39:43;;;;;;;27.23;14.55;;;10.40;99.90;;;;;;6208140;23;20119;-68
2024/01/30 08:42:08;;;;;;;;;;;11.40;99.90;;;;;;6207950;23;20412;-73
2024/01/30 08:44:34;;;;;;;37.10;13.63;;;12.40;98.90;;;;;;6207496;23;19911;-74
2024/01/30 08:46:59;;;;;;;24.33;13.10;;;12.00;98.50;;;;;;6207620;23;20038;-75
2024/01/30 08:49:25;;;;;;;24.33;14.20;;;11.90;98.50;;;;;;6207277;23;20058;-72
2024/01/30 08:51:50;;;;;;;20.33;11.07;;;12.60;96.20;;;;;;6207530;23;20005;-68
2024/01/30 08:54:16;;;;;;;21.00;11.40;;;13.00;94.60;;;;;;6207397;23;20012;-70
2024/01/30 08:56:41;;;;;;;30.73;11.30;;;14.00;94.00;;;;;;6207380;23;20004;-68
2024/01/30 08:59:07;;;;;;;21.60;11.67;;;15.30;90.70;;;;;;6208303;23;20453;-72
2024/01/30 09:01:33;;;;;;;19.47;10.90;;;15.80;86.00;;;;;;6208090;23;20009;-67
2024/01/30 09:03:58;;;;;;;23.53;10.43;;;16.10;84.50;;;;;;6207991;23;20071;-70
2024/01/30 09:06:26;;;;;;;21.57;9.90;;;16.10;83.20;;;;;;6208249;23;20071;-64
2024/01/30 09:08:52;;;;;;;29.00;12.55;;;16.20;83.10;;;;;;6208173;23;20051;-68
2024/01/30 09:11:17;;;;;;;24.07;10.60;;;15.60;82.40;;;;;;6206895;23;20005;-68
2024/01/30 09:13:43;;;;;;;16.20;9.23;;;15.90;81.20;;;;;;6208167;23;20107;-70
2024/01/30 09:16:09;;;;;;;22.33;10.55;;;16.40;80.30;;;;;;6208301;23;20024;-65
2024/01/30 09:18:34;;;;;;;20.92;9.98;;;16.70;79.10;;;;;;6207500;23;20005;-65
2024/01/30 09:21:00;;;;;;;17.87;8.23;;;17.80;77.30;;;;;;6207981;23;20119;-71
2024/01/30 09:23:28;;;;;;;25.40;10.00;;;;;;;;;;6208068;23;20005;-70
2024/01/30 09:25:54;;;;;;;17.83;9.00;;;;;;;;;;6206669;23;20075;-71
2024/01/30 09:28:20;;;;;;;19.58;8.13;;;;;;;;;;6207930;23;20012;-69
2024/01/30 09:30:46;;;;;;;21.15;7.88;;;;;;;;;;6207174;23;20020;-72
2024/01/30 09:33:11;;;;;;;16.85;7.65;;;17.60;74.00;;;;;;6207187;23;20003;-67
2024/01/30 09:35:37;;;;;;;12.67;6.57;;;16.00;77.20;;;;;;6207286;23;20032;-69
2024/01/30 09:38:03;;;;;;;14.60;6.10;;;14.90;81.80;;;;;;6207652;23;20327;-73
2024/01/30 09:40:28;;;;;;;11.68;5.47;;;14.40;85.70;;;;;;6207348;23;20075;-70
2024/01/30 09:42:54;;;;;;;14.67;6.10;;;14.10;87.80;;;;;;6208214;23;20075;-70
2024/01/30 09:45:24;;;;;;;10.60;6.03;;;13.80;89.50;;;;;;6207650;23;20031;-66
2024/01/30 09:47:50;;;;;;;11.77;5.53;;;13.30;89.40;;;;;;6207094;23;20724;-66
2024/01/30 09:50:16;;;;;;;18.23;5.73;;;13.10;90.90;;;;;;6208000;23;20083;-66
2024/01/30 09:52:44;;;;;;;20.35;5.30;;;13.10;91.90;;;;;;6207716;23;20018;-67
2024/01/30 09:55:10;;;;;;;13.07;4.72;;;13.30;91.50;;;;;;6208145;23;20080;-70
2024/01/30 09:57:36;;;;;;;11.25;5.28;;;13.40;91.70;;;;;;6207372;23;20028;-70
2024/01/30 10:00:03;;;;;;;12.27;5.00;;;13.40;91.20;;;;;;6207098;23;20518;-66
2024/01/30 10:02:31;;;;;;;14.43;5.30;;;13.60;91.10;;;;;;6206618;23;20005;-70
2024/01/30 10:04:57;;;;;;;12.43;5.63;;;13.60;91.10;;;;;;6207186;23;20754;-74
2024/01/30 10:07:23;;;;;;;9.17;5.37;;;13.60;91.50;;;;;;6207353;23;20007;-73
2024/01/30 10:09:49;;;;;;;12.80;5.18;;;13.70;91.70;;;;;;6207796;23;20092;-68
2024/01/30 10:12:15;;;;;;;15.05;5.55;;;13.50;91.10;;;;;;6207139;23;20024;-71
2024/01/30 10:14:42;;;;;;;13.13;5.72;;;13.50;92.30;;;;;;6207043;23;20031;-69
2024/01/30 10:17:09;;;;;;;11.98;5.85;;;13.10;92.60;;;;;;6207204;23;19997;-71
2024/01/30 10:19:36;;;;;;;13.02;5.82;;;13.30;93.30;;;;;;6208054;23;20043;-70
2024/01/30 10:22:02;;;;;;;16.23;5.60;;;13.70;93.10;;;;;;6207315;23;20103;-70
2024/01/30 10:24:29;;;;;;;9.77;5.25;;;14.30;91.50;;;;;;6207042;23;20005;-68
2024/01/30 10:26:55;;;;;;;14.82;6.50;;;14.20;91.20;;;;;;6207148;23;20012;-66
2024/01/30 10:29:21;;;;;;;10.52;5.68;;;13.80;91.10;;;;;;6206915;23;20012;-66
2024/01/30 10:32:01;;;;;;;14.07;5.55;;;13.20;92.00;;;;;;6204383;23;20013;-65
2024/01/30 10:34:27;;;;;;;20.40;5.82;;;13.10;93.00;;;;;;6206459;23;20005;-66
2024/01/30 10:37:00;;;;;;;9.55;5.15;;;13.20;92.90;;;;;;6207400;22;20004;-68
2024/01/30 10:39:30;;;;;;;13.32;5.28;;;13.10;92.50;;;;;;6207732;23;20018;-66
2024/01/30 10:42:01;;;;;;;11.13;5.63;;;13.20;92.90;;;;;;6207136;23;20031;-67
2024/01/30 10:44:30;;;;;;;8.55;4.60;;;13.10;92.80;;;;;;6206475;23;20437;-67
2024/01/30 10:47:03;;;;;;;13.82;5.38;;;13.20;93.30;;;;;;6205604;22;20485;-72
2024/01/30 10:49:29;;;;;;;14.68;5.88;;;13.20;93.00;;;;;;6207995;23;20111;-75
2024/01/30 10:51:56;;;;;;;11.50;5.43;;;13.20;93.10;;;;;;6205890;23;20501;-68
2024/01/30 10:54:24;;;;;;;13.52;5.15;;;13.20;93.60;;;;;;6205048;23;20396;-68
2024/01/30 10:56:51;;;;;;;13.88;4.88;;;13.00;93.10;;;;;;6204930;23;20004;-69
2024/01/30 10:59:16;;;;;;;9.77;5.60;;;13.00;92.60;;;;;;6231137;23;20453;-70
2024/01/30 11:01:43;;;;;;;15.05;5.65;;;13.00;92.60;;;;;;6208331;23;20013;-71
2024/01/30 11:04:09;;;;;;;9.57;5.13;;;12.90;92.60;;;;;;6208567;23;20076;-70
2024/01/30 11:06:41;;;;;;;18.85;4.88;;;13.10;92.90;;;;;;6205373;23;20170;-73
2024/01/30 11:09:12;;;;;;;14.30;4.80;;;13.10;92.20;;;;;;6208590;23;20016;-74
2024/01/30 11:12:00;;;;;;;7.40;4.30;;;13.20;92.40;;;;;;6208999;23;20445;-70
2024/01/30 11:14:27;;;;;;;7.05;4.13;;;13.30;91.40;;;;;;6208567;23;20063;-70
2024/01/30 11:16:53;;;;;;;7.20;4.18;;;13.30;91.40;;;;;;6209087;23;20005;-67
2024/01/30 11:19:31;;;;;;;8.18;3.90;;;13.20;91.50;;;;;;6210899;23;20071;-68
2024/01/30 11:21:57;;;;;;;8.85;3.78;;;13.00;90.10;;;;;;6209326;23;20087;-72
2024/01/30 11:24:26;;;;;;;9.90;4.88;;;13.10;91.60;;;;;;6209463;23;20400;-80
2024/01/30 11:26:58;;;;;;;8.13;4.40;;;13.10;90.80;;;;;;6209245;23;20001;-76
2024/01/30 11:29:28;;;;;;;9.77;5.18;;;13.20;91.40;;;;;;6209144;23;20091;-72
2024/01/30 11:31:58;;;;;;;11.68;4.05;;;12.90;90.90;;;;;;6209508;23;20079;-71
2024/01/30 11:34:24;;;;;;;10.32;4.20;;;12.80;91.20;;;;;;6209435;23;20008;-73
2024/01/30 11:36:58;;;;;;;11.88;3.60;;;12.90;91.00;;;;;;6210143;23;20588;-71
2024/01/30 11:39:29;;;;;;;11.82;4.30;;;12.90;90.90;;;;;;6209480;23;20039;-71
2024/01/30 11:41:55;;;;;;;11.85;4.50;;;12.90;91.80;;;;;;6207161;23;20009;-73
2024/01/30 11:44:22;;;;;;;10.57;5.25;;;12.90;91.50;;;;;;6206993;23;20386;-70
2024/01/30 11:46:48;;;;;;;6.40;3.80;;;12.80;91.60;;;;;;6205720;23;20016;-71
2024/01/30 11:49:16;;;;;;;12.00;4.07;;;12.90;91.50;;;;;;6205568;23;20019;-70
2024/01/30 11:51:42;;;;;;;10.35;4.18;;;12.90;92.00;;;;;;6207255;23;20012;-70
2024/01/30 11:54:11;;;;;;;7.77;4.07;;;12.90;91.10;;;;;;6206478;23;20001;-70
2024/01/30 11:59:13;;;;;;;10.20;3.92;;;12.70;91.90;;;;;;6225619;22;20516;-75
2024/01/30 12:01:39;;;;;;;;;;;12.80;90.90;;;;;;6236878;23;20395;-76
2024/01/30 12:04:08;;;;;;;14.82;3.38;;;12.80;91.30;;;;;;6237540;23;19910;-74
2024/01/30 12:06:34;;;;;;;10.95;4.32;;;12.80;90.60;;;;;;6236492;23;20353;-78
2024/01/30 12:09:04;;;;;;;8.13;3.10;;;12.80;90.70;;;;;;6238764;23;20012;-77
2024/01/30 12:11:30;;;;;;;10.57;3.45;;;12.80;91.10;;;;;;6238446;23;20023;-77
2024/01/30 12:13:56;;;;;;;12.32;3.05;;;12.90;90.40;;;;;;6237771;23;20082;-78
2024/01/30 12:16:21;;;;;;;10.02;3.15;;;13.00;90.40;;;;;;6238197;23;20000;-81
2024/01/30 12:18:48;;;;;;;3.65;2.60;;;12.90;89.40;;;;;;6238496;23;20082;-77
2024/01/30 12:21:17;;;;;;;12.65;3.50;;;12.90;88.90;;;;;;6238234;23;20436;-80
2024/01/30 12:23:43;;;;;;;5.25;2.83;;;13.00;89.00;;;;;;6238379;23;20015;-77
2024/01/30 12:26:10;;;;;;;11.40;3.30;;;12.90;89.80;;;;;;6238897;23;20059;-79
2024/01/30 12:28:35;;;;;;;;;;;13.00;90.20;;;;;;6238749;23;20447;-80
2024/01/30 12:31:03;;;;;;;12.07;2.88;;;13.00;88.80;;;;;;6237936;23;19978;-80
2024/01/30 12:33:29;;;;;;;12.93;2.75;;;13.10;86.10;;;;;;6236291;23;20011;-79
2024/01/30 12:35:56;;;;;;;4.65;2.35;;;13.10;83.90;;;;;;6237094;23;20011;-79
2024/01/30 12:38:21;;;;;;;8.43;2.75;;;13.20;83.60;;;;;;6211539;23;20411;-80
2024/01/30 12:40:47;;;;;;;13.23;3.00;;;13.20;84.20;;;;;;6237352;23;20011;-75
2024/01/30 12:43:16;;;;;;;6.37;2.90;;;13.20;84.30;;;;;;6234769;23;20015;-77
2024/01/30 12:45:42;;;;;;;5.45;3.00;;;13.10;84.90;;;;;;6237911;23;20000;-75
2024/01/30 12:48:08;;;;;;;5.50;3.13;;;13.20;85.00;;;;;;6238032;23;20012;-77
2024/01/30 12:50:34;;;;;;;;;;;13.30;84.40;;;;;;6236900;23;20004;-77